sensor_id;sensor_type;location;lat;lon;timestamp;P1;durP1;ratioP1;P2;durP2;ratioP2
51692;SDS011;37777;53.066;21.638;2023-07-02T00:01:33;13.77;;;10.93;;
51692;SDS011;37777;53.066;21.638;2023-07-02T00:08:35;14.57;;;10.68;;
51692;SDS011;37777;53.066;21.638;2023-07-02T00:15:37;16.80;;;12.15;;
51692;SDS011;37777;53.066;21.638;2023-07-02T00:22:40;15.05;;;11.65;;
51692;SDS011;37777;53.066;21.638;2023-07-02T00:29:46;14.65;;;11.35;;
51692;SDS011;37777;53.066;21.638;2023-07-02T00:36:48;14.93;;;10.35;;
51692;SDS011;37777;53.066;21.638;2023-07-02T00:43:51;16.13;;;11.82;;
51692;SDS011;37777;53.066;21.638;2023-07-02T00:50:56;15.75;;;10.68;;
51692;SDS011;37777;53.066;21.638;2023-07-02T00:57:58;14.10;;;11.25;;
51692;SDS011;37777;53.066;21.638;2023-07-02T01:05:00;15.98;;;11.68;;
51692;SDS011;37777;53.066;21.638;2023-07-02T01:12:03;16.27;;;12.20;;
51692;SDS011;37777;53.066;21.638;2023-07-02T01:19:09;18.60;;;12.27;;
51692;SDS011;37777;53.066;21.638;2023-07-02T01:26:15;16.08;;;11.95;;
51692;SDS011;37777;53.066;21.638;2023-07-02T01:33:17;15.85;;;11.80;;
51692;SDS011;37777;53.066;21.638;2023-07-02T01:40:19;14.55;;;11.98;;
51692;SDS011;37777;53.066;21.638;2023-07-02T01:47:21;15.65;;;12.05;;
51692;SDS011;37777;53.066;21.638;2023-07-02T01:54:24;16.35;;;12.77;;
51692;SDS011;37777;53.066;21.638;2023-07-02T02:01:30;17.77;;;12.45;;
51692;SDS011;37777;53.066;21.638;2023-07-02T02:08:34;18.27;;;12.88;;
51692;SDS011;37777;53.066;21.638;2023-07-02T02:15:36;16.92;;;12.50;;
51692;SDS011;37777;53.066;21.638;2023-07-02T02:22:38;15.15;;;12.32;;
51692;SDS011;37777;53.066;21.638;2023-07-02T02:29:40;16.45;;;13.20;;
51692;SDS011;37777;53.066;21.638;2023-07-02T02:36:42;17.60;;;13.13;;
51692;SDS011;37777;53.066;21.638;2023-07-02T02:43:45;18.98;;;15.02;;
51692;SDS011;37777;53.066;21.638;2023-07-02T02:50:47;19.33;;;15.15;;
51692;SDS011;37777;53.066;21.638;2023-07-02T02:57:50;18.55;;;14.38;;
51692;SDS011;37777;53.066;21.638;2023-07-02T03:04:52;18.48;;;14.45;;
51692;SDS011;37777;53.066;21.638;2023-07-02T03:11:54;22.38;;;15.95;;
51692;SDS011;37777;53.066;21.638;2023-07-02T03:18:56;19.30;;;14.52;;
51692;SDS011;37777;53.066;21.638;2023-07-02T03:25:58;18.60;;;13.90;;
51692;SDS011;37777;53.066;21.638;2023-07-02T03:33:00;20.15;;;14.10;;
51692;SDS011;37777;53.066;21.638;2023-07-02T03:40:02;23.00;;;15.30;;
51692;SDS011;37777;53.066;21.638;2023-07-02T03:47:05;18.08;;;14.63;;
51692;SDS011;37777;53.066;21.638;2023-07-02T03:54:09;22.42;;;15.32;;
51692;SDS011;37777;53.066;21.638;2023-07-02T04:01:11;20.30;;;15.10;;
51692;SDS011;37777;53.066;21.638;2023-07-02T04:08:17;20.27;;;14.38;;
51692;SDS011;37777;53.066;21.638;2023-07-02T04:15:19;21.17;;;16.35;;
51692;SDS011;37777;53.066;21.638;2023-07-02T04:22:21;20.30;;;14.02;;
51692;SDS011;37777;53.066;21.638;2023-07-02T04:29:23;20.20;;;14.85;;
51692;SDS011;37777;53.066;21.638;2023-07-02T04:36:25;23.67;;;15.90;;
51692;SDS011;37777;53.066;21.638;2023-07-02T04:43:28;20.45;;;15.43;;
51692;SDS011;37777;53.066;21.638;2023-07-02T04:50:34;22.95;;;15.13;;
51692;SDS011;37777;53.066;21.638;2023-07-02T04:57:37;19.85;;;15.07;;
51692;SDS011;37777;53.066;21.638;2023-07-02T05:04:39;25.10;;;16.50;;
51692;SDS011;37777;53.066;21.638;2023-07-02T05:11:41;21.48;;;16.05;;
51692;SDS011;37777;53.066;21.638;2023-07-02T05:18:43;20.45;;;15.25;;
51692;SDS011;37777;53.066;21.638;2023-07-02T05:25:45;24.48;;;15.43;;
51692;SDS011;37777;53.066;21.638;2023-07-02T05:32:47;20.75;;;15.77;;
51692;SDS011;37777;53.066;21.638;2023-07-02T05:39:49;21.13;;;16.08;;
51692;SDS011;37777;53.066;21.638;2023-07-02T05:46:51;20.42;;;14.50;;
51692;SDS011;37777;53.066;21.638;2023-07-02T05:53:54;20.40;;;14.27;;
51692;SDS011;37777;53.066;21.638;2023-07-02T06:00:56;20.88;;;14.43;;
51692;SDS011;37777;53.066;21.638;2023-07-02T06:07:58;26.65;;;15.25;;
51692;SDS011;37777;53.066;21.638;2023-07-02T06:15:00;19.35;;;13.68;;
51692;SDS011;37777;53.066;21.638;2023-07-02T06:22:02;16.77;;;12.38;;
51692;SDS011;37777;53.066;21.638;2023-07-02T06:29:04;21.80;;;13.82;;
51692;SDS011;37777;53.066;21.638;2023-07-02T06:36:06;16.45;;;13.50;;
51692;SDS011;37777;53.066;21.638;2023-07-02T06:43:11;18.52;;;13.20;;
51692;SDS011;37777;53.066;21.638;2023-07-02T06:50:14;19.63;;;12.70;;
51692;SDS011;37777;53.066;21.638;2023-07-02T06:57:17;14.32;;;11.45;;
51692;SDS011;37777;53.066;21.638;2023-07-02T07:04:19;16.77;;;11.90;;
51692;SDS011;37777;53.066;21.638;2023-07-02T07:11:21;14.93;;;10.18;;
51692;SDS011;37777;53.066;21.638;2023-07-02T07:18:24;14.73;;;10.75;;
51692;SDS011;37777;53.066;21.638;2023-07-02T07:25:33;16.63;;;10.02;;
51692;SDS011;37777;53.066;21.638;2023-07-02T07:32:35;13.50;;;9.25;;
51692;SDS011;37777;53.066;21.638;2023-07-02T07:39:37;12.65;;;9.38;;
51692;SDS011;37777;53.066;21.638;2023-07-02T07:46:39;11.32;;;9.18;;
51692;SDS011;37777;53.066;21.638;2023-07-02T07:53:41;12.80;;;9.13;;
51692;SDS011;37777;53.066;21.638;2023-07-02T08:00:45;14.35;;;9.32;;
51692;SDS011;37777;53.066;21.638;2023-07-02T08:07:48;9.45;;;8.15;;
51692;SDS011;37777;53.066;21.638;2023-07-02T08:14:50;10.65;;;8.60;;
51692;SDS011;37777;53.066;21.638;2023-07-02T08:21:52;9.43;;;7.93;;
51692;SDS011;37777;53.066;21.638;2023-07-02T08:28:54;9.57;;;7.88;;
51692;SDS011;37777;53.066;21.638;2023-07-02T08:35:56;8.63;;;7.40;;
51692;SDS011;37777;53.066;21.638;2023-07-02T08:42:59;8.80;;;6.72;;
51692;SDS011;37777;53.066;21.638;2023-07-02T08:50:02;8.65;;;7.40;;
51692;SDS011;37777;53.066;21.638;2023-07-02T08:57:06;12.32;;;7.55;;
51692;SDS011;37777;53.066;21.638;2023-07-02T09:04:20;8.43;;;7.65;;
51692;SDS011;37777;53.066;21.638;2023-07-02T09:11:29;8.90;;;8.10;;
51692;SDS011;37777;53.066;21.638;2023-07-02T09:18:32;10.77;;;9.35;;
51692;SDS011;37777;53.066;21.638;2023-07-02T09:25:40;7.93;;;7.07;;
51692;SDS011;37777;53.066;21.638;2023-07-02T09:32:43;8.65;;;7.93;;
51692;SDS011;37777;53.066;21.638;2023-07-02T09:39:47;11.55;;;8.77;;
51692;SDS011;37777;53.066;21.638;2023-07-02T09:47:03;8.55;;;7.82;;
51692;SDS011;37777;53.066;21.638;2023-07-02T09:54:10;9.13;;;8.25;;
51692;SDS011;37777;53.066;21.638;2023-07-02T10:01:12;8.40;;;7.60;;
51692;SDS011;37777;53.066;21.638;2023-07-02T10:08:15;9.00;;;8.10;;
51692;SDS011;37777;53.066;21.638;2023-07-02T10:15:29;7.82;;;7.13;;
51692;SDS011;37777;53.066;21.638;2023-07-02T10:22:44;9.48;;;7.28;;
51692;SDS011;37777;53.066;21.638;2023-07-02T10:29:49;7.55;;;6.82;;
51692;SDS011;37777;53.066;21.638;2023-07-02T10:36:55;6.32;;;5.72;;
51692;SDS011;37777;53.066;21.638;2023-07-02T10:44:08;7.28;;;6.78;;
51692;SDS011;37777;53.066;21.638;2023-07-02T10:51:11;6.95;;;6.43;;
51692;SDS011;37777;53.066;21.638;2023-07-02T10:58:14;7.30;;;6.57;;
51692;SDS011;37777;53.066;21.638;2023-07-02T11:05:16;7.30;;;6.60;;
51692;SDS011;37777;53.066;21.638;2023-07-02T11:12:18;8.20;;;7.47;;
51692;SDS011;37777;53.066;21.638;2023-07-02T11:19:31;8.23;;;7.13;;
51692;SDS011;37777;53.066;21.638;2023-07-02T11:26:34;6.93;;;6.32;;
51692;SDS011;37777;53.066;21.638;2023-07-02T11:33:45;6.93;;;6.43;;
51692;SDS011;37777;53.066;21.638;2023-07-02T11:40:48;7.28;;;6.78;;
51692;SDS011;37777;53.066;21.638;2023-07-02T11:47:50;6.75;;;6.15;;
51692;SDS011;37777;53.066;21.638;2023-07-02T11:54:52;6.72;;;6.13;;
51692;SDS011;37777;53.066;21.638;2023-07-02T12:01:54;6.75;;;6.35;;
51692;SDS011;37777;53.066;21.638;2023-07-02T12:08:56;6.13;;;5.63;;
51692;SDS011;37777;53.066;21.638;2023-07-02T12:15:59;6.57;;;5.97;;
51692;SDS011;37777;53.066;21.638;2023-07-02T12:23:01;7.13;;;6.43;;
51692;SDS011;37777;53.066;21.638;2023-07-02T12:30:03;6.38;;;5.80;;
51692;SDS011;37777;53.066;21.638;2023-07-02T12:37:06;7.15;;;6.50;;
51692;SDS011;37777;53.066;21.638;2023-07-02T12:44:08;6.65;;;6.15;;
51692;SDS011;37777;53.066;21.638;2023-07-02T12:51:10;7.90;;;5.80;;
51692;SDS011;37777;53.066;21.638;2023-07-02T12:58:12;8.88;;;5.95;;
51692;SDS011;37777;53.066;21.638;2023-07-02T13:05:14;6.47;;;6.07;;
51692;SDS011;37777;53.066;21.638;2023-07-02T13:12:17;15.60;;;6.15;;
51692;SDS011;37777;53.066;21.638;2023-07-02T13:19:19;6.55;;;6.05;;
51692;SDS011;37777;53.066;21.638;2023-07-02T13:26:22;7.35;;;6.75;;
51692;SDS011;37777;53.066;21.638;2023-07-02T13:33:24;6.88;;;5.50;;
51692;SDS011;37777;53.066;21.638;2023-07-02T13:40:27;5.97;;;5.68;;
51692;SDS011;37777;53.066;21.638;2023-07-02T13:47:30;6.25;;;5.75;;
51692;SDS011;37777;53.066;21.638;2023-07-02T13:54:32;6.22;;;5.63;;
51692;SDS011;37777;53.066;21.638;2023-07-02T14:01:37;5.90;;;5.50;;
51692;SDS011;37777;53.066;21.638;2023-07-02T14:08:40;6.00;;;5.60;;
51692;SDS011;37777;53.066;21.638;2023-07-02T14:15:42;7.25;;;6.60;;
51692;SDS011;37777;53.066;21.638;2023-07-02T14:22:45;8.07;;;6.00;;
51692;SDS011;37777;53.066;21.638;2023-07-02T14:29:49;5.63;;;5.22;;
51692;SDS011;37777;53.066;21.638;2023-07-02T14:36:52;6.82;;;6.20;;
51692;SDS011;37777;53.066;21.638;2023-07-02T14:43:54;5.95;;;5.55;;
51692;SDS011;37777;53.066;21.638;2023-07-02T14:50:57;6.95;;;6.45;;
51692;SDS011;37777;53.066;21.638;2023-07-02T14:58:01;5.97;;;5.50;;
51692;SDS011;37777;53.066;21.638;2023-07-02T15:05:03;7.30;;;6.70;;
51692;SDS011;37777;53.066;21.638;2023-07-02T15:12:06;7.28;;;6.78;;
51692;SDS011;37777;53.066;21.638;2023-07-02T15:19:08;6.43;;;5.93;;
51692;SDS011;37777;53.066;21.638;2023-07-02T15:26:10;7.10;;;6.30;;
51692;SDS011;37777;53.066;21.638;2023-07-02T15:33:12;8.45;;;5.82;;
51692;SDS011;37777;53.066;21.638;2023-07-02T15:40:15;7.70;;;6.97;;
51692;SDS011;37777;53.066;21.638;2023-07-02T15:47:17;7.45;;;6.95;;
51692;SDS011;37777;53.066;21.638;2023-07-02T15:54:19;8.25;;;5.72;;
51692;SDS011;37777;53.066;21.638;2023-07-02T16:01:21;6.13;;;5.72;;
51692;SDS011;37777;53.066;21.638;2023-07-02T16:08:23;6.88;;;6.38;;
51692;SDS011;37777;53.066;21.638;2023-07-02T16:15:25;6.75;;;6.25;;
51692;SDS011;37777;53.066;21.638;2023-07-02T16:22:27;6.97;;;6.47;;
51692;SDS011;37777;53.066;21.638;2023-07-02T16:29:29;7.70;;;6.85;;
51692;SDS011;37777;53.066;21.638;2023-07-02T16:36:32;7.78;;;6.88;;
51692;SDS011;37777;53.066;21.638;2023-07-02T16:43:34;6.60;;;6.10;;
51692;SDS011;37777;53.066;21.638;2023-07-02T16:50:40;6.72;;;6.20;;
51692;SDS011;37777;53.066;21.638;2023-07-02T16:57:42;10.35;;;5.95;;
51692;SDS011;37777;53.066;21.638;2023-07-02T17:04:45;6.28;;;5.75;;
51692;SDS011;37777;53.066;21.638;2023-07-02T17:11:48;6.82;;;6.13;;
51692;SDS011;37777;53.066;21.638;2023-07-02T17:18:54;6.55;;;6.03;;
51692;SDS011;37777;53.066;21.638;2023-07-02T17:26:01;6.35;;;5.72;;
51692;SDS011;37777;53.066;21.638;2023-07-02T17:33:09;7.63;;;6.32;;
51692;SDS011;37777;53.066;21.638;2023-07-02T17:40:12;6.45;;;4.93;;
51692;SDS011;37777;53.066;21.638;2023-07-02T17:47:16;6.05;;;4.93;;
51692;SDS011;37777;53.066;21.638;2023-07-02T17:54:20;5.40;;;4.72;;
51692;SDS011;37777;53.066;21.638;2023-07-02T18:01:23;8.02;;;6.53;;
51692;SDS011;37777;53.066;21.638;2023-07-02T18:08:26;11.95;;;5.30;;
51692;SDS011;37777;53.066;21.638;2023-07-02T18:15:29;6.50;;;5.85;;
51692;SDS011;37777;53.066;21.638;2023-07-02T18:22:32;10.10;;;6.10;;
51692;SDS011;37777;53.066;21.638;2023-07-02T18:29:35;8.50;;;5.97;;
51692;SDS011;37777;53.066;21.638;2023-07-02T18:36:52;6.38;;;5.85;;
51692;SDS011;37777;53.066;21.638;2023-07-02T18:44:06;5.82;;;5.30;;
51692;SDS011;37777;53.066;21.638;2023-07-02T18:51:15;6.10;;;5.50;;
51692;SDS011;37777;53.066;21.638;2023-07-02T18:58:31;7.22;;;5.68;;
51692;SDS011;37777;53.066;21.638;2023-07-02T19:05:51;7.75;;;5.22;;
51692;SDS011;37777;53.066;21.638;2023-07-02T19:13:01;6.72;;;5.10;;
51692;SDS011;37777;53.066;21.638;2023-07-02T19:20:03;5.15;;;4.68;;
51692;SDS011;37777;53.066;21.638;2023-07-02T19:27:09;16.65;;;5.07;;
51692;SDS011;37777;53.066;21.638;2023-07-02T19:34:16;5.93;;;5.20;;
51692;SDS011;37777;53.066;21.638;2023-07-02T19:41:19;5.55;;;4.78;;
51692;SDS011;37777;53.066;21.638;2023-07-02T19:48:21;7.53;;;5.07;;
51692;SDS011;37777;53.066;21.638;2023-07-02T19:55:24;6.32;;;5.60;;
51692;SDS011;37777;53.066;21.638;2023-07-02T20:02:27;6.55;;;5.85;;
51692;SDS011;37777;53.066;21.638;2023-07-02T20:09:30;11.75;;;6.15;;
51692;SDS011;37777;53.066;21.638;2023-07-02T20:16:33;12.75;;;5.85;;
51692;SDS011;37777;53.066;21.638;2023-07-02T20:23:35;6.15;;;5.55;;
51692;SDS011;37777;53.066;21.638;2023-07-02T20:30:38;13.02;;;6.82;;
51692;SDS011;37777;53.066;21.638;2023-07-02T20:37:41;7.78;;;5.95;;
51692;SDS011;37777;53.066;21.638;2023-07-02T20:44:51;12.48;;;5.82;;
51692;SDS011;37777;53.066;21.638;2023-07-02T20:51:53;6.85;;;5.95;;
51692;SDS011;37777;53.066;21.638;2023-07-02T20:58:56;8.02;;;5.78;;
51692;SDS011;37777;53.066;21.638;2023-07-02T21:05:58;11.27;;;6.20;;
51692;SDS011;37777;53.066;21.638;2023-07-02T21:13:04;9.25;;;5.95;;
51692;SDS011;37777;53.066;21.638;2023-07-02T21:20:06;8.70;;;6.53;;
51692;SDS011;37777;53.066;21.638;2023-07-02T21:27:09;8.40;;;6.07;;
51692;SDS011;37777;53.066;21.638;2023-07-02T21:34:11;11.93;;;6.32;;
51692;SDS011;37777;53.066;21.638;2023-07-02T21:41:13;9.90;;;6.63;;
51692;SDS011;37777;53.066;21.638;2023-07-02T21:48:16;10.38;;;7.47;;
51692;SDS011;37777;53.066;21.638;2023-07-02T21:55:18;9.05;;;6.97;;
51692;SDS011;37777;53.066;21.638;2023-07-02T22:02:20;11.75;;;7.10;;
51692;SDS011;37777;53.066;21.638;2023-07-02T22:09:22;12.77;;;6.20;;
51692;SDS011;37777;53.066;21.638;2023-07-02T22:16:24;8.45;;;6.13;;
51692;SDS011;37777;53.066;21.638;2023-07-02T22:23:26;6.97;;;6.05;;
51692;SDS011;37777;53.066;21.638;2023-07-02T22:30:28;10.57;;;6.45;;
51692;SDS011;37777;53.066;21.638;2023-07-02T22:37:30;12.23;;;7.05;;
51692;SDS011;37777;53.066;21.638;2023-07-02T22:44:33;10.80;;;6.82;;
51692;SDS011;37777;53.066;21.638;2023-07-02T22:51:35;10.65;;;7.47;;
51692;SDS011;37777;53.066;21.638;2023-07-02T22:58:38;9.02;;;6.63;;
51692;SDS011;37777;53.066;21.638;2023-07-02T23:05:40;10.25;;;6.75;;
51692;SDS011;37777;53.066;21.638;2023-07-02T23:12:44;7.90;;;6.70;;
51692;SDS011;37777;53.066;21.638;2023-07-02T23:19:48;7.68;;;6.90;;
51692;SDS011;37777;53.066;21.638;2023-07-02T23:26:51;8.88;;;6.75;;
51692;SDS011;37777;53.066;21.638;2023-07-02T23:33:53;8.82;;;6.95;;
51692;SDS011;37777;53.066;21.638;2023-07-02T23:40:56;19.42;;;7.90;;
51692;SDS011;37777;53.066;21.638;2023-07-02T23:47:58;10.50;;;6.80;;
51692;SDS011;37777;53.066;21.638;2023-07-02T23:55:00;8.35;;;7.30;;
